sensor_id;sensor_type;location;lat;lon;timestamp;P1;durP1;ratioP1;P2;durP2;ratioP2
4450;SDS011;2238;50.180;9.230;2023-03-04T00:01:30;20.50;;;13.83;;
4450;SDS011;2238;50.180;9.230;2023-03-04T00:04:31;22.97;;;15.10;;
4450;SDS011;2238;50.180;9.230;2023-03-04T00:07:31;22.03;;;13.20;;
4450;SDS011;2238;50.180;9.230;2023-03-04T00:10:32;18.77;;;12.30;;
4450;SDS011;2238;50.180;9.230;2023-03-04T00:13:32;20.60;;;12.47;;
4450;SDS011;2238;50.180;9.230;2023-03-04T00:16:33;17.17;;;11.77;;
4450;SDS011;2238;50.180;9.230;2023-03-04T00:19:33;19.87;;;13.33;;
4450;SDS011;2238;50.180;9.230;2023-03-04T00:22:34;20.73;;;13.97;;
4450;SDS011;2238;50.180;9.230;2023-03-04T00:25:34;24.73;;;12.77;;
4450;SDS011;2238;50.180;9.230;2023-03-04T00:28:35;24.40;;;13.73;;
4450;SDS011;2238;50.180;9.230;2023-03-04T00:31:36;16.87;;;11.27;;
4450;SDS011;2238;50.180;9.230;2023-03-04T00:34:36;22.37;;;13.40;;
4450;SDS011;2238;50.180;9.230;2023-03-04T00:37:39;18.37;;;12.30;;
4450;SDS011;2238;50.180;9.230;2023-03-04T00:40:40;16.50;;;12.70;;
4450;SDS011;2238;50.180;9.230;2023-03-04T00:43:40;19.20;;;12.17;;
4450;SDS011;2238;50.180;9.230;2023-03-04T00:46:41;18.93;;;13.50;;
4450;SDS011;2238;50.180;9.230;2023-03-04T00:49:41;20.83;;;13.07;;
4450;SDS011;2238;50.180;9.230;2023-03-04T00:52:42;23.43;;;13.73;;
4450;SDS011;2238;50.180;9.230;2023-03-04T00:55:42;19.27;;;12.70;;
4450;SDS011;2238;50.180;9.230;2023-03-04T00:58:43;24.93;;;13.63;;
4450;SDS011;2238;50.180;9.230;2023-03-04T01:01:44;20.07;;;13.53;;
4450;SDS011;2238;50.180;9.230;2023-03-04T01:04:44;19.63;;;12.37;;
4450;SDS011;2238;50.180;9.230;2023-03-04T01:07:45;26.50;;;14.77;;
4450;SDS011;2238;50.180;9.230;2023-03-04T01:10:45;19.73;;;13.40;;
4450;SDS011;2238;50.180;9.230;2023-03-04T01:13:47;22.33;;;14.07;;
4450;SDS011;2238;50.180;9.230;2023-03-04T01:16:48;25.87;;;14.50;;
4450;SDS011;2238;50.180;9.230;2023-03-04T01:19:49;22.23;;;13.83;;
4450;SDS011;2238;50.180;9.230;2023-03-04T01:22:49;22.80;;;13.10;;
4450;SDS011;2238;50.180;9.230;2023-03-04T01:25:50;22.10;;;11.83;;
4450;SDS011;2238;50.180;9.230;2023-03-04T01:28:50;22.97;;;14.10;;
4450;SDS011;2238;50.180;9.230;2023-03-04T01:31:51;19.37;;;12.80;;
4450;SDS011;2238;50.180;9.230;2023-03-04T01:34:51;20.60;;;12.37;;
4450;SDS011;2238;50.180;9.230;2023-03-04T01:37:52;23.00;;;13.40;;
4450;SDS011;2238;50.180;9.230;2023-03-04T01:40:53;23.60;;;13.43;;
4450;SDS011;2238;50.180;9.230;2023-03-04T01:43:57;16.63;;;12.17;;
4450;SDS011;2238;50.180;9.230;2023-03-04T01:46:59;22.13;;;12.60;;
4450;SDS011;2238;50.180;9.230;2023-03-04T01:50:00;20.50;;;12.10;;
4450;SDS011;2238;50.180;9.230;2023-03-04T01:53:04;21.67;;;13.57;;
4450;SDS011;2238;50.180;9.230;2023-03-04T01:56:14;23.23;;;14.80;;
4450;SDS011;2238;50.180;9.230;2023-03-04T01:59:21;19.50;;;13.20;;
4450;SDS011;2238;50.180;9.230;2023-03-04T02:02:24;23.37;;;13.23;;
4450;SDS011;2238;50.180;9.230;2023-03-04T02:05:24;23.47;;;13.30;;
4450;SDS011;2238;50.180;9.230;2023-03-04T02:08:26;19.53;;;13.27;;
4450;SDS011;2238;50.180;9.230;2023-03-04T02:11:26;23.03;;;13.80;;
4450;SDS011;2238;50.180;9.230;2023-03-04T02:14:27;21.77;;;13.87;;
4450;SDS011;2238;50.180;9.230;2023-03-04T02:17:28;25.23;;;14.57;;
4450;SDS011;2238;50.180;9.230;2023-03-04T02:27:26;21.30;;;12.83;;
4450;SDS011;2238;50.180;9.230;2023-03-04T02:30:27;22.27;;;13.57;;
4450;SDS011;2238;50.180;9.230;2023-03-04T02:33:28;23.40;;;15.50;;
4450;SDS011;2238;50.180;9.230;2023-03-04T02:36:29;21.03;;;14.60;;
4450;SDS011;2238;50.180;9.230;2023-03-04T02:39:32;21.50;;;13.40;;
4450;SDS011;2238;50.180;9.230;2023-03-04T02:42:39;27.13;;;14.60;;
4450;SDS011;2238;50.180;9.230;2023-03-04T02:45:43;19.90;;;14.00;;
4450;SDS011;2238;50.180;9.230;2023-03-04T02:48:45;29.23;;;15.23;;
4450;SDS011;2238;50.180;9.230;2023-03-04T02:51:46;26.00;;;15.07;;
4450;SDS011;2238;50.180;9.230;2023-03-04T02:54:51;26.67;;;16.17;;
4450;SDS011;2238;50.180;9.230;2023-03-04T02:57:51;24.37;;;15.03;;
4450;SDS011;2238;50.180;9.230;2023-03-04T03:00:52;28.73;;;15.83;;
4450;SDS011;2238;50.180;9.230;2023-03-04T03:03:53;26.80;;;15.30;;
4450;SDS011;2238;50.180;9.230;2023-03-04T03:06:53;28.30;;;15.87;;
4450;SDS011;2238;50.180;9.230;2023-03-04T03:09:54;24.77;;;15.80;;
4450;SDS011;2238;50.180;9.230;2023-03-04T03:12:55;25.53;;;14.87;;
4450;SDS011;2238;50.180;9.230;2023-03-04T03:15:55;24.70;;;14.47;;
4450;SDS011;2238;50.180;9.230;2023-03-04T03:18:56;23.57;;;13.87;;
4450;SDS011;2238;50.180;9.230;2023-03-04T03:21:56;24.57;;;14.27;;
4450;SDS011;2238;50.180;9.230;2023-03-04T03:24:57;25.13;;;15.30;;
4450;SDS011;2238;50.180;9.230;2023-03-04T03:27:57;27.77;;;17.47;;
4450;SDS011;2238;50.180;9.230;2023-03-04T03:30:58;26.13;;;15.60;;
4450;SDS011;2238;50.180;9.230;2023-03-04T03:33:59;21.00;;;13.93;;
4450;SDS011;2238;50.180;9.230;2023-03-04T03:36:59;26.90;;;15.83;;
4450;SDS011;2238;50.180;9.230;2023-03-04T03:40:00;27.70;;;16.17;;
4450;SDS011;2238;50.180;9.230;2023-03-04T03:43:00;29.77;;;17.60;;
4450;SDS011;2238;50.180;9.230;2023-03-04T03:46:01;24.20;;;16.70;;
4450;SDS011;2238;50.180;9.230;2023-03-04T03:49:02;23.87;;;15.90;;
4450;SDS011;2238;50.180;9.230;2023-03-04T03:52:02;28.70;;;16.00;;
4450;SDS011;2238;50.180;9.230;2023-03-04T03:55:04;28.37;;;17.27;;
4450;SDS011;2238;50.180;9.230;2023-03-04T03:58:05;25.30;;;16.20;;
4450;SDS011;2238;50.180;9.230;2023-03-04T04:01:05;29.47;;;16.60;;
4450;SDS011;2238;50.180;9.230;2023-03-04T04:04:06;30.67;;;16.90;;
4450;SDS011;2238;50.180;9.230;2023-03-04T04:07:07;27.10;;;16.73;;
4450;SDS011;2238;50.180;9.230;2023-03-04T04:10:07;29.23;;;17.43;;
4450;SDS011;2238;50.180;9.230;2023-03-04T04:13:09;27.63;;;15.67;;
4450;SDS011;2238;50.180;9.230;2023-03-04T04:16:10;28.90;;;15.03;;
4450;SDS011;2238;50.180;9.230;2023-03-04T04:19:18;30.20;;;15.17;;
4450;SDS011;2238;50.180;9.230;2023-03-04T04:22:19;29.23;;;16.10;;
4450;SDS011;2238;50.180;9.230;2023-03-04T04:25:20;27.00;;;15.90;;
4450;SDS011;2238;50.180;9.230;2023-03-04T04:28:21;23.00;;;15.40;;
4450;SDS011;2238;50.180;9.230;2023-03-04T04:31:22;28.43;;;16.40;;
4450;SDS011;2238;50.180;9.230;2023-03-04T04:34:23;32.03;;;17.80;;
4450;SDS011;2238;50.180;9.230;2023-03-04T04:37:23;27.33;;;16.60;;
4450;SDS011;2238;50.180;9.230;2023-03-04T04:40:24;32.00;;;18.50;;
4450;SDS011;2238;50.180;9.230;2023-03-04T04:43:25;26.20;;;17.43;;
4450;SDS011;2238;50.180;9.230;2023-03-04T04:46:25;28.40;;;17.47;;
4450;SDS011;2238;50.180;9.230;2023-03-04T04:49:26;27.23;;;18.33;;
4450;SDS011;2238;50.180;9.230;2023-03-04T04:52:26;30.70;;;17.03;;
4450;SDS011;2238;50.180;9.230;2023-03-04T04:55:27;26.50;;;15.83;;
4450;SDS011;2238;50.180;9.230;2023-03-04T04:58:28;24.90;;;15.50;;
4450;SDS011;2238;50.180;9.230;2023-03-04T05:01:28;31.50;;;17.70;;
4450;SDS011;2238;50.180;9.230;2023-03-04T05:04:29;23.07;;;17.27;;
4450;SDS011;2238;50.180;9.230;2023-03-04T05:07:30;27.53;;;16.90;;
4450;SDS011;2238;50.180;9.230;2023-03-04T05:10:31;27.87;;;17.07;;
4450;SDS011;2238;50.180;9.230;2023-03-04T05:13:31;26.73;;;17.20;;
4450;SDS011;2238;50.180;9.230;2023-03-04T05:16:32;27.30;;;16.70;;
4450;SDS011;2238;50.180;9.230;2023-03-04T05:19:33;23.30;;;14.50;;
4450;SDS011;2238;50.180;9.230;2023-03-04T05:22:33;27.10;;;16.63;;
4450;SDS011;2238;50.180;9.230;2023-03-04T05:25:34;23.00;;;14.47;;
4450;SDS011;2238;50.180;9.230;2023-03-04T05:28:35;30.40;;;16.60;;
4450;SDS011;2238;50.180;9.230;2023-03-04T05:31:35;26.60;;;16.20;;
4450;SDS011;2238;50.180;9.230;2023-03-04T05:34:36;28.53;;;16.70;;
4450;SDS011;2238;50.180;9.230;2023-03-04T05:37:36;24.67;;;16.47;;
4450;SDS011;2238;50.180;9.230;2023-03-04T05:40:37;20.33;;;15.13;;
4450;SDS011;2238;50.180;9.230;2023-03-04T05:43:38;28.77;;;16.53;;
4450;SDS011;2238;50.180;9.230;2023-03-04T05:46:41;28.73;;;17.40;;
4450;SDS011;2238;50.180;9.230;2023-03-04T05:49:42;26.87;;;16.80;;
4450;SDS011;2238;50.180;9.230;2023-03-04T05:52:43;32.10;;;18.50;;
4450;SDS011;2238;50.180;9.230;2023-03-04T05:55:47;28.93;;;16.97;;
4450;SDS011;2238;50.180;9.230;2023-03-04T05:58:47;35.40;;;18.60;;
4450;SDS011;2238;50.180;9.230;2023-03-04T06:01:48;30.20;;;16.17;;
4450;SDS011;2238;50.180;9.230;2023-03-04T06:04:48;31.53;;;18.57;;
4450;SDS011;2238;50.180;9.230;2023-03-04T06:07:49;27.47;;;16.93;;
4450;SDS011;2238;50.180;9.230;2023-03-04T06:10:54;26.33;;;17.87;;
4450;SDS011;2238;50.180;9.230;2023-03-04T06:13:57;31.07;;;17.00;;
4450;SDS011;2238;50.180;9.230;2023-03-04T06:16:58;29.90;;;19.40;;
4450;SDS011;2238;50.180;9.230;2023-03-04T06:19:59;33.47;;;19.43;;
4450;SDS011;2238;50.180;9.230;2023-03-04T06:22:59;33.43;;;18.67;;
4450;SDS011;2238;50.180;9.230;2023-03-04T06:26:00;31.63;;;19.63;;
4450;SDS011;2238;50.180;9.230;2023-03-04T06:29:01;34.17;;;19.60;;
4450;SDS011;2238;50.180;9.230;2023-03-04T06:32:01;32.57;;;19.93;;
4450;SDS011;2238;50.180;9.230;2023-03-04T06:35:02;34.00;;;18.53;;
4450;SDS011;2238;50.180;9.230;2023-03-04T06:38:03;34.40;;;19.80;;
4450;SDS011;2238;50.180;9.230;2023-03-04T06:41:07;36.50;;;20.80;;
4450;SDS011;2238;50.180;9.230;2023-03-04T06:44:11;30.40;;;20.37;;
4450;SDS011;2238;50.180;9.230;2023-03-04T06:47:12;32.17;;;19.73;;
4450;SDS011;2238;50.180;9.230;2023-03-04T06:50:12;34.63;;;19.60;;
4450;SDS011;2238;50.180;9.230;2023-03-04T06:53:13;31.70;;;18.90;;
4450;SDS011;2238;50.180;9.230;2023-03-04T06:56:13;34.47;;;19.90;;
4450;SDS011;2238;50.180;9.230;2023-03-04T06:59:17;34.77;;;21.33;;
4450;SDS011;2238;50.180;9.230;2023-03-04T07:02:17;45.60;;;23.67;;
4450;SDS011;2238;50.180;9.230;2023-03-04T07:05:18;36.33;;;22.40;;
4450;SDS011;2238;50.180;9.230;2023-03-04T07:08:19;37.77;;;22.77;;
4450;SDS011;2238;50.180;9.230;2023-03-04T07:11:20;35.63;;;20.93;;
4450;SDS011;2238;50.180;9.230;2023-03-04T07:14:21;41.53;;;22.20;;
4450;SDS011;2238;50.180;9.230;2023-03-04T07:17:21;34.30;;;21.03;;
4450;SDS011;2238;50.180;9.230;2023-03-04T07:20:22;38.27;;;20.70;;
4450;SDS011;2238;50.180;9.230;2023-03-04T07:23:22;35.70;;;21.23;;
4450;SDS011;2238;50.180;9.230;2023-03-04T07:26:23;31.80;;;20.53;;
4450;SDS011;2238;50.180;9.230;2023-03-04T07:29:23;45.57;;;23.20;;
4450;SDS011;2238;50.180;9.230;2023-03-04T07:32:24;33.57;;;20.40;;
4450;SDS011;2238;50.180;9.230;2023-03-04T07:35:25;34.87;;;19.83;;
4450;SDS011;2238;50.180;9.230;2023-03-04T07:38:25;35.03;;;19.80;;
4450;SDS011;2238;50.180;9.230;2023-03-04T07:41:26;34.13;;;20.23;;
4450;SDS011;2238;50.180;9.230;2023-03-04T07:44:27;31.60;;;21.40;;
4450;SDS011;2238;50.180;9.230;2023-03-04T07:47:28;30.70;;;18.30;;
4450;SDS011;2238;50.180;9.230;2023-03-04T07:50:28;37.37;;;20.60;;
4450;SDS011;2238;50.180;9.230;2023-03-04T07:53:29;32.20;;;21.07;;
4450;SDS011;2238;50.180;9.230;2023-03-04T07:56:31;36.63;;;22.97;;
4450;SDS011;2238;50.180;9.230;2023-03-04T07:59:32;36.23;;;20.47;;
4450;SDS011;2238;50.180;9.230;2023-03-04T08:02:33;36.90;;;22.90;;
4450;SDS011;2238;50.180;9.230;2023-03-04T08:05:33;33.77;;;20.70;;
4450;SDS011;2238;50.180;9.230;2023-03-04T08:08:34;33.30;;;20.03;;
4450;SDS011;2238;50.180;9.230;2023-03-04T08:11:36;35.30;;;21.17;;
4450;SDS011;2238;50.180;9.230;2023-03-04T08:14:37;32.73;;;19.70;;
4450;SDS011;2238;50.180;9.230;2023-03-04T08:17:37;35.03;;;20.37;;
4450;SDS011;2238;50.180;9.230;2023-03-04T08:20:40;31.63;;;19.60;;
4450;SDS011;2238;50.180;9.230;2023-03-04T08:23:42;47.67;;;22.53;;
4450;SDS011;2238;50.180;9.230;2023-03-04T08:26:44;35.47;;;23.70;;
4450;SDS011;2238;50.180;9.230;2023-03-04T08:29:46;34.67;;;22.40;;
4450;SDS011;2238;50.180;9.230;2023-03-04T08:32:47;31.10;;;21.63;;
4450;SDS011;2238;50.180;9.230;2023-03-04T08:35:47;39.00;;;25.60;;
4450;SDS011;2238;50.180;9.230;2023-03-04T08:38:48;37.80;;;24.13;;
4450;SDS011;2238;50.180;9.230;2023-03-04T08:41:49;48.90;;;30.50;;
4450;SDS011;2238;50.180;9.230;2023-03-04T08:44:49;38.03;;;25.43;;
4450;SDS011;2238;50.180;9.230;2023-03-04T08:47:50;41.03;;;27.00;;
4450;SDS011;2238;50.180;9.230;2023-03-04T08:50:50;42.40;;;27.63;;
4450;SDS011;2238;50.180;9.230;2023-03-04T08:53:51;30.43;;;20.43;;
4450;SDS011;2238;50.180;9.230;2023-03-04T08:56:52;29.17;;;19.60;;
4450;SDS011;2238;50.180;9.230;2023-03-04T08:59:52;34.93;;;19.83;;
4450;SDS011;2238;50.180;9.230;2023-03-04T09:02:53;34.50;;;19.97;;
4450;SDS011;2238;50.180;9.230;2023-03-04T09:05:54;33.27;;;20.77;;
4450;SDS011;2238;50.180;9.230;2023-03-04T09:08:56;38.50;;;20.93;;
4450;SDS011;2238;50.180;9.230;2023-03-04T09:11:57;30.23;;;21.00;;
4450;SDS011;2238;50.180;9.230;2023-03-04T09:14:58;29.90;;;18.40;;
4450;SDS011;2238;50.180;9.230;2023-03-04T09:17:58;31.00;;;20.57;;
4450;SDS011;2238;50.180;9.230;2023-03-04T09:21:01;30.87;;;19.03;;
4450;SDS011;2238;50.180;9.230;2023-03-04T09:24:02;28.37;;;17.63;;
4450;SDS011;2238;50.180;9.230;2023-03-04T09:27:03;33.33;;;21.23;;
4450;SDS011;2238;50.180;9.230;2023-03-04T09:30:03;31.03;;;19.93;;
4450;SDS011;2238;50.180;9.230;2023-03-04T09:33:04;55.53;;;31.80;;
4450;SDS011;2238;50.180;9.230;2023-03-04T09:36:05;34.40;;;20.57;;
4450;SDS011;2238;50.180;9.230;2023-03-04T09:39:07;26.50;;;16.87;;
4450;SDS011;2238;50.180;9.230;2023-03-04T09:42:08;28.60;;;20.27;;
4450;SDS011;2238;50.180;9.230;2023-03-04T09:45:18;28.10;;;17.70;;
4450;SDS011;2238;50.180;9.230;2023-03-04T09:48:21;31.97;;;18.60;;
4450;SDS011;2238;50.180;9.230;2023-03-04T09:54:39;28.27;;;19.37;;
4450;SDS011;2238;50.180;9.230;2023-03-04T10:07:45;30.33;;;19.57;;
4450;SDS011;2238;50.180;9.230;2023-03-04T10:10:51;34.23;;;19.40;;
4450;SDS011;2238;50.180;9.230;2023-03-04T10:13:58;30.47;;;17.40;;
4450;SDS011;2238;50.180;9.230;2023-03-04T10:17:12;24.73;;;16.23;;
4450;SDS011;2238;50.180;9.230;2023-03-04T10:21:07;30.07;;;18.57;;
4450;SDS011;2238;50.180;9.230;2023-03-04T10:23:52;30.50;;;18.97;;
4450;SDS011;2238;50.180;9.230;2023-03-04T10:26:54;33.87;;;17.90;;
4450;SDS011;2238;50.180;9.230;2023-03-04T10:30:00;29.40;;;19.20;;
4450;SDS011;2238;50.180;9.230;2023-03-04T10:33:01;30.70;;;19.60;;
4450;SDS011;2238;50.180;9.230;2023-03-04T10:36:12;34.37;;;19.37;;
4450;SDS011;2238;50.180;9.230;2023-03-04T10:39:40;29.73;;;19.80;;
4450;SDS011;2238;50.180;9.230;2023-03-04T10:42:42;32.40;;;18.47;;
4450;SDS011;2238;50.180;9.230;2023-03-04T10:45:43;28.23;;;19.37;;
4450;SDS011;2238;50.180;9.230;2023-03-04T10:48:45;28.83;;;16.63;;
4450;SDS011;2238;50.180;9.230;2023-03-04T10:51:51;45.20;;;26.40;;
4450;SDS011;2238;50.180;9.230;2023-03-04T10:55:21;28.10;;;18.77;;
4450;SDS011;2238;50.180;9.230;2023-03-04T10:58:41;24.70;;;16.23;;
4450;SDS011;2238;50.180;9.230;2023-03-04T11:01:41;28.70;;;17.10;;
4450;SDS011;2238;50.180;9.230;2023-03-04T11:04:42;30.23;;;18.33;;
4450;SDS011;2238;50.180;9.230;2023-03-04T11:08:15;29.23;;;19.10;;
4450;SDS011;2238;50.180;9.230;2023-03-04T11:14:45;35.57;;;19.80;;
4450;SDS011;2238;50.180;9.230;2023-03-04T11:17:49;31.10;;;17.03;;
4450;SDS011;2238;50.180;9.230;2023-03-04T11:20:52;28.10;;;17.37;;
4450;SDS011;2238;50.180;9.230;2023-03-04T11:24:01;26.80;;;15.33;;
4450;SDS011;2238;50.180;9.230;2023-03-04T11:27:17;28.07;;;16.73;;
4450;SDS011;2238;50.180;9.230;2023-03-04T11:43:53;18.77;;;13.03;;
4450;SDS011;2238;50.180;9.230;2023-03-04T11:47:02;25.57;;;14.83;;
4450;SDS011;2238;50.180;9.230;2023-03-04T11:50:28;24.23;;;14.03;;
4450;SDS011;2238;50.180;9.230;2023-03-04T11:57:20;24.70;;;12.83;;
4450;SDS011;2238;50.180;9.230;2023-03-04T12:00:37;23.73;;;15.80;;
4450;SDS011;2238;50.180;9.230;2023-03-04T12:03:58;30.47;;;12.80;;
4450;SDS011;2238;50.180;9.230;2023-03-04T12:14:22;22.60;;;11.73;;
4450;SDS011;2238;50.180;9.230;2023-03-04T12:20:59;19.10;;;12.47;;
4450;SDS011;2238;50.180;9.230;2023-03-04T12:24:50;21.20;;;10.90;;
4450;SDS011;2238;50.180;9.230;2023-03-04T12:50:17;17.30;;;9.73;;
4450;SDS011;2238;50.180;9.230;2023-03-04T12:53:26;13.90;;;9.27;;
4450;SDS011;2238;50.180;9.230;2023-03-04T12:59:45;29.50;;;13.00;;
4450;SDS011;2238;50.180;9.230;2023-03-04T13:02:59;17.40;;;10.53;;
4450;SDS011;2238;50.180;9.230;2023-03-04T13:06:30;19.57;;;10.80;;
4450;SDS011;2238;50.180;9.230;2023-03-04T13:10:06;15.80;;;9.27;;
4450;SDS011;2238;50.180;9.230;2023-03-04T13:13:32;19.63;;;8.30;;
4450;SDS011;2238;50.180;9.230;2023-03-04T13:16:48;11.80;;;7.10;;
4450;SDS011;2238;50.180;9.230;2023-03-04T13:19:51;11.70;;;6.00;;
4450;SDS011;2238;50.180;9.230;2023-03-04T13:29:08;16.83;;;9.00;;
4450;SDS011;2238;50.180;9.230;2023-03-04T13:32:10;19.53;;;8.67;;
4450;SDS011;2238;50.180;9.230;2023-03-04T13:38:55;10.83;;;7.10;;
4450;SDS011;2238;50.180;9.230;2023-03-04T13:41:59;11.70;;;6.40;;
4450;SDS011;2238;50.180;9.230;2023-03-04T13:45:01;11.57;;;6.10;;
4450;SDS011;2238;50.180;9.230;2023-03-04T13:48:03;10.70;;;6.27;;
4450;SDS011;2238;50.180;9.230;2023-03-04T13:51:37;12.37;;;8.80;;
4450;SDS011;2238;50.180;9.230;2023-03-04T13:54:45;14.63;;;8.10;;
4450;SDS011;2238;50.180;9.230;2023-03-04T13:57:49;13.40;;;7.13;;
4450;SDS011;2238;50.180;9.230;2023-03-04T14:00:51;9.83;;;6.17;;
4450;SDS011;2238;50.180;9.230;2023-03-04T14:03:53;10.07;;;7.23;;
4450;SDS011;2238;50.180;9.230;2023-03-04T14:06:55;13.60;;;7.90;;
4450;SDS011;2238;50.180;9.230;2023-03-04T14:10:01;9.47;;;6.90;;
4450;SDS011;2238;50.180;9.230;2023-03-04T14:13:08;15.93;;;7.07;;
4450;SDS011;2238;50.180;9.230;2023-03-04T14:16:10;9.60;;;6.80;;
4450;SDS011;2238;50.180;9.230;2023-03-04T14:19:14;9.10;;;6.77;;
4450;SDS011;2238;50.180;9.230;2023-03-04T14:22:38;10.37;;;5.67;;
4450;SDS011;2238;50.180;9.230;2023-03-04T14:25:39;10.13;;;6.57;;
4450;SDS011;2238;50.180;9.230;2023-03-04T14:28:49;12.20;;;6.90;;
4450;SDS011;2238;50.180;9.230;2023-03-04T14:31:52;11.13;;;8.23;;
4450;SDS011;2238;50.180;9.230;2023-03-04T14:34:55;10.50;;;7.40;;
4450;SDS011;2238;50.180;9.230;2023-03-04T14:37:59;10.73;;;7.20;;
4450;SDS011;2238;50.180;9.230;2023-03-04T14:41:07;12.33;;;6.80;;
4450;SDS011;2238;50.180;9.230;2023-03-04T14:44:19;14.30;;;6.40;;
4450;SDS011;2238;50.180;9.230;2023-03-04T14:47:39;12.40;;;8.60;;
4450;SDS011;2238;50.180;9.230;2023-03-04T14:50:47;14.67;;;7.80;;
4450;SDS011;2238;50.180;9.230;2023-03-04T14:53:55;12.60;;;8.40;;
4450;SDS011;2238;50.180;9.230;2023-03-04T14:56:58;10.30;;;7.70;;
4450;SDS011;2238;50.180;9.230;2023-03-04T15:00:34;19.70;;;10.20;;
4450;SDS011;2238;50.180;9.230;2023-03-04T15:03:29;11.53;;;8.03;;
4450;SDS011;2238;50.180;9.230;2023-03-04T15:06:32;16.87;;;9.90;;
4450;SDS011;2238;50.180;9.230;2023-03-04T15:09:34;17.07;;;9.50;;
4450;SDS011;2238;50.180;9.230;2023-03-04T15:12:35;17.80;;;11.40;;
4450;SDS011;2238;50.180;9.230;2023-03-04T15:15:43;19.00;;;11.87;;
4450;SDS011;2238;50.180;9.230;2023-03-04T15:18:52;19.50;;;10.40;;
4450;SDS011;2238;50.180;9.230;2023-03-04T15:22:01;18.67;;;11.07;;
4450;SDS011;2238;50.180;9.230;2023-03-04T15:25:04;21.57;;;11.30;;
4450;SDS011;2238;50.180;9.230;2023-03-04T15:28:05;16.40;;;10.83;;
4450;SDS011;2238;50.180;9.230;2023-03-04T15:31:21;23.13;;;11.20;;
4450;SDS011;2238;50.180;9.230;2023-03-04T15:34:23;16.70;;;11.27;;
4450;SDS011;2238;50.180;9.230;2023-03-04T15:37:27;18.00;;;10.30;;
4450;SDS011;2238;50.180;9.230;2023-03-04T15:40:30;19.20;;;11.67;;
4450;SDS011;2238;50.180;9.230;2023-03-04T15:43:32;19.40;;;11.90;;
4450;SDS011;2238;50.180;9.230;2023-03-04T15:46:33;18.07;;;11.23;;
4450;SDS011;2238;50.180;9.230;2023-03-04T15:49:34;25.93;;;11.67;;
4450;SDS011;2238;50.180;9.230;2023-03-04T15:52:34;21.87;;;15.57;;
4450;SDS011;2238;50.180;9.230;2023-03-04T15:55:37;16.97;;;10.80;;
4450;SDS011;2238;50.180;9.230;2023-03-04T15:58:37;19.03;;;10.87;;
4450;SDS011;2238;50.180;9.230;2023-03-04T16:01:38;19.40;;;10.10;;
4450;SDS011;2238;50.180;9.230;2023-03-04T16:04:39;12.07;;;8.80;;
4450;SDS011;2238;50.180;9.230;2023-03-04T16:07:41;16.60;;;10.13;;
4450;SDS011;2238;50.180;9.230;2023-03-04T16:10:45;19.70;;;10.53;;
4450;SDS011;2238;50.180;9.230;2023-03-04T16:13:46;21.10;;;12.40;;
4450;SDS011;2238;50.180;9.230;2023-03-04T16:16:47;25.60;;;13.77;;
4450;SDS011;2238;50.180;9.230;2023-03-04T16:19:49;18.27;;;11.00;;
4450;SDS011;2238;50.180;9.230;2023-03-04T16:22:57;20.07;;;10.13;;
4450;SDS011;2238;50.180;9.230;2023-03-04T16:25:59;13.90;;;10.50;;
4450;SDS011;2238;50.180;9.230;2023-03-04T16:29:00;16.43;;;10.17;;
4450;SDS011;2238;50.180;9.230;2023-03-04T16:32:02;18.00;;;11.47;;
4450;SDS011;2238;50.180;9.230;2023-03-04T16:35:03;16.37;;;9.93;;
4450;SDS011;2238;50.180;9.230;2023-03-04T16:38:05;22.13;;;10.07;;
4450;SDS011;2238;50.180;9.230;2023-03-04T16:41:25;17.90;;;12.20;;
4450;SDS011;2238;50.180;9.230;2023-03-04T16:44:27;11.73;;;8.40;;
4450;SDS011;2238;50.180;9.230;2023-03-04T16:47:28;14.50;;;8.27;;
4450;SDS011;2238;50.180;9.230;2023-03-04T16:50:28;15.50;;;8.50;;
4450;SDS011;2238;50.180;9.230;2023-03-04T16:56:37;18.80;;;9.80;;
4450;SDS011;2238;50.180;9.230;2023-03-04T16:59:37;14.40;;;9.73;;
4450;SDS011;2238;50.180;9.230;2023-03-04T17:02:38;15.53;;;9.80;;
4450;SDS011;2238;50.180;9.230;2023-03-04T17:05:39;14.47;;;9.50;;
4450;SDS011;2238;50.180;9.230;2023-03-04T17:08:41;13.70;;;9.33;;
4450;SDS011;2238;50.180;9.230;2023-03-04T17:11:43;42.40;;;22.50;;
4450;SDS011;2238;50.180;9.230;2023-03-04T17:14:43;13.90;;;9.77;;
4450;SDS011;2238;50.180;9.230;2023-03-04T17:17:44;16.93;;;10.30;;
4450;SDS011;2238;50.180;9.230;2023-03-04T17:20:45;20.70;;;10.00;;
4450;SDS011;2238;50.180;9.230;2023-03-04T17:23:46;14.77;;;9.93;;
4450;SDS011;2238;50.180;9.230;2023-03-04T17:26:47;17.43;;;10.97;;
4450;SDS011;2238;50.180;9.230;2023-03-04T17:29:47;13.77;;;8.80;;
4450;SDS011;2238;50.180;9.230;2023-03-04T17:32:52;12.90;;;9.87;;
4450;SDS011;2238;50.180;9.230;2023-03-04T17:35:52;15.40;;;9.70;;
4450;SDS011;2238;50.180;9.230;2023-03-04T17:38:53;19.50;;;10.40;;
4450;SDS011;2238;50.180;9.230;2023-03-04T17:41:54;19.03;;;10.50;;
4450;SDS011;2238;50.180;9.230;2023-03-04T17:44:55;20.07;;;10.00;;
4450;SDS011;2238;50.180;9.230;2023-03-04T17:47:56;15.37;;;10.07;;
4450;SDS011;2238;50.180;9.230;2023-03-04T17:50:56;17.83;;;10.10;;
4450;SDS011;2238;50.180;9.230;2023-03-04T17:53:57;19.93;;;11.57;;
4450;SDS011;2238;50.180;9.230;2023-03-04T17:57:00;57.73;;;25.83;;
4450;SDS011;2238;50.180;9.230;2023-03-04T18:00:00;28.63;;;14.40;;
4450;SDS011;2238;50.180;9.230;2023-03-04T18:03:02;56.40;;;23.47;;
4450;SDS011;2238;50.180;9.230;2023-03-04T18:06:03;23.43;;;14.80;;
4450;SDS011;2238;50.180;9.230;2023-03-04T18:09:04;16.67;;;10.60;;
4450;SDS011;2238;50.180;9.230;2023-03-04T18:12:05;15.17;;;10.00;;
4450;SDS011;2238;50.180;9.230;2023-03-04T18:15:06;15.57;;;9.23;;
4450;SDS011;2238;50.180;9.230;2023-03-04T18:18:07;17.60;;;10.30;;
4450;SDS011;2238;50.180;9.230;2023-03-04T18:21:08;17.70;;;10.80;;
4450;SDS011;2238;50.180;9.230;2023-03-04T18:24:09;18.53;;;10.37;;
4450;SDS011;2238;50.180;9.230;2023-03-04T18:27:09;14.23;;;9.00;;
4450;SDS011;2238;50.180;9.230;2023-03-04T18:30:11;21.50;;;10.47;;
4450;SDS011;2238;50.180;9.230;2023-03-04T18:33:16;16.33;;;9.10;;
4450;SDS011;2238;50.180;9.230;2023-03-04T18:36:17;17.60;;;10.87;;
4450;SDS011;2238;50.180;9.230;2023-03-04T18:39:18;18.03;;;10.97;;
4450;SDS011;2238;50.180;9.230;2023-03-04T18:42:18;20.50;;;10.90;;
4450;SDS011;2238;50.180;9.230;2023-03-04T18:45:19;13.67;;;9.83;;
4450;SDS011;2238;50.180;9.230;2023-03-04T18:48:20;16.70;;;9.67;;
4450;SDS011;2238;50.180;9.230;2023-03-04T18:51:21;17.27;;;10.47;;
4450;SDS011;2238;50.180;9.230;2023-03-04T18:54:21;14.07;;;11.50;;
4450;SDS011;2238;50.180;9.230;2023-03-04T18:57:22;15.23;;;10.80;;
4450;SDS011;2238;50.180;9.230;2023-03-04T19:00:23;18.40;;;12.60;;
4450;SDS011;2238;50.180;9.230;2023-03-04T19:03:23;18.63;;;13.10;;
4450;SDS011;2238;50.180;9.230;2023-03-04T19:06:24;27.20;;;12.33;;
4450;SDS011;2238;50.180;9.230;2023-03-04T19:09:25;27.13;;;17.17;;
4450;SDS011;2238;50.180;9.230;2023-03-04T19:12:26;22.13;;;14.90;;
4450;SDS011;2238;50.180;9.230;2023-03-04T19:15:26;22.07;;;14.27;;
4450;SDS011;2238;50.180;9.230;2023-03-04T19:18:29;23.00;;;13.60;;
4450;SDS011;2238;50.180;9.230;2023-03-04T19:21:30;21.27;;;14.90;;
4450;SDS011;2238;50.180;9.230;2023-03-04T19:24:32;60.07;;;35.83;;
4450;SDS011;2238;50.180;9.230;2023-03-04T19:27:33;19.93;;;13.50;;
4450;SDS011;2238;50.180;9.230;2023-03-04T19:30:38;21.73;;;15.17;;
4450;SDS011;2238;50.180;9.230;2023-03-04T19:33:39;20.07;;;13.30;;
4450;SDS011;2238;50.180;9.230;2023-03-04T19:36:40;23.87;;;15.67;;
4450;SDS011;2238;50.180;9.230;2023-03-04T19:39:41;24.80;;;13.93;;
4450;SDS011;2238;50.180;9.230;2023-03-04T19:42:42;24.03;;;15.20;;
4450;SDS011;2238;50.180;9.230;2023-03-04T19:45:50;29.63;;;18.17;;
4450;SDS011;2238;50.180;9.230;2023-03-04T19:48:54;23.10;;;16.27;;
4450;SDS011;2238;50.180;9.230;2023-03-04T19:51:55;44.07;;;30.13;;
4450;SDS011;2238;50.180;9.230;2023-03-04T19:54:56;36.30;;;23.47;;
4450;SDS011;2238;50.180;9.230;2023-03-04T19:57:56;38.90;;;22.60;;